Date,TemperatureHighF,TemperatureAvgF,TemperatureLowF,DewpointHighF,DewpointAvgF,DewpointLowF,HumidityHigh,HumidityAvg,HumidityLow,PressureMaxIn,PressureMinIn,WindSpeedMaxMPH,WindSpeedAvgMPH,GustSpeedMaxMPH,PrecipitationSumIn
2013-6-1,69.1,57.1,45.5,52.5,47.7,42.7,97,73,47,30.21,30.02,12,0,12,0.00
2013-6-2,68.1,57.8,50.5,51.7,49.3,46.3,94,75,48,30.06,30.00,11,0,11,0.02
2013-6-3,72.5,58.2,44.1,56.2,50.1,42.5,98,76,53,30.08,30.03,11,0,11,0.00
2013-6-4,78.3,62.7,44.9,56.5,51.0,43.0,97,69,41,30.10,29.99,4,1,10,0.00
2013-6-5,76.8,61.0,47.1,58.7,52.2,45.2,98,75,47,30.07,30.00,11,1,11,0.00
2013-6-6,79.6,62.1,46.5,59.7,50.0,38.0,97,68,38,30.02,29.98,12,1,12,0.00
2013-6-7,66.3,58.0,50.2,51.3,47.5,42.3,86,69,46,30.13,29.98,11,0,11,0.00
2013-6-8,66.3,56.7,49.8,51.9,47.7,44.9,86,73,56,30.15,30.08,12,1,12,0.00
2013-6-9,66.8,56.2,50.4,48.9,45.9,42.8,90,70,44,30.09,30.00,12,1,12,0.00
2013-6-10,69.1,55.6,42.1,53.8,45.8,39.4,96,72,42,30.01,29.85,10,0,10,0.00
2013-6-11,61.6,53.6,48.2,52.8,47.9,45.1,93,82,58,30.07,29.90,7,0,7,0.13
2013-6-12,67.4,55.6,47.9,51.1,47.8,45.0,97,77,47,30.11,30.07,11,0,11,0.01
2013-6-13,65.8,56.3,50.5,53.2,49.7,45.6,96,80,53,30.18,30.11,9,0,9,0.09
2013-6-14,66.0,56.8,49.8,51.9,48.8,46.5,93,76,56,30.20,30.03,6,0,6,0.00
2013-6-15,76.0,60.1,41.9,58.9,50.8,40.0,98,74,47,30.03,29.88,10,0,10,0.00
2013-6-16,73.5,61.1,48.8,60.9,53.7,46.9,97,78,52,30.05,29.95,7,0,7,0.03
2013-6-17,76.0,61.6,48.0,56.9,51.9,46.1,98,74,40,30.06,29.85,9,0,9,0.12
2013-6-18,72.3,60.7,52.0,57.3,51.2,41.5,97,74,39,29.94,29.84,9,0,9,0.01
2013-6-19,65.6,57.0,52.2,55.2,51.6,47.6,95,83,57,29.97,29.88,5,0,5,0.18
2013-6-20,56.0,53.2,51.6,53.1,51.3,49.8,96,93,81,30.08,29.92,7,0,7,1.20
2013-6-21,64.8,57.6,51.1,55.5,52.3,49.9,97,84,66,30.13,30.07,4,0,4,0.04
2013-6-22,77.6,62.8,48.0,57.5,52.0,46.6,97,71,40,30.10,29.83,6,0,6,0.00
2013-6-23,69.4,62.7,52.9,62.3,57.6,50.9,97,84,66,29.82,29.56,6,0,6,0.01
2013-6-24,66.1,60.3,55.9,60.0,56.8,53.4,97,89,66,29.66,29.54,11,0,11,0.39
2013-6-25,70.3,59.5,53.8,62.5,56.2,52.1,97,89,64,29.83,29.64,12,0,12,0.41
2013-6-26,70.3,61.0,53.8,63.4,57.3,52.4,98,88,66,30.05,29.81,9,0,9,0.11
2013-6-27,70.8,63.5,56.7,63.9,59.4,55.3,97,87,72,30.17,30.01,9,0,9,0.09
2013-6-28,87.4,70.9,57.5,67.1,60.9,55.9,97,74,36,30.16,30.00,7,0,7,0.00
2013-6-29,83.4,70.6,60.5,65.7,61.4,57.5,96,75,45,30.06,29.96,9,0,9,0.00
2013-6-30,91.4,73.5,56.6,70.1,62.5,55.0,98,72,43,29.98,29.81,9,0,9,0.00